sensor_id;sensor_type;location;lat;lon;timestamp;P1;durP1;ratioP1;P2;durP2;ratioP2
62990;SDS011;49084;48.204;16.202;2023-03-23T00:00:05;9.48;;;4.75;;
62990;SDS011;49084;48.204;16.202;2023-03-23T00:05:04;8.45;;;5.40;;
62990;SDS011;49084;48.204;16.202;2023-03-23T00:07:32;10.73;;;5.07;;
62990;SDS011;49084;48.204;16.202;2023-03-23T00:09:58;8.32;;;5.50;;
62990;SDS011;49084;48.204;16.202;2023-03-23T00:12:28;9.13;;;4.90;;
62990;SDS011;49084;48.204;16.202;2023-03-23T00:15:01;9.85;;;5.57;;
62990;SDS011;49084;48.204;16.202;2023-03-23T00:17:28;8.95;;;4.97;;
62990;SDS011;49084;48.204;16.202;2023-03-23T00:19:55;8.30;;;4.63;;
62990;SDS011;49084;48.204;16.202;2023-03-23T00:22:21;10.35;;;4.80;;
62990;SDS011;49084;48.204;16.202;2023-03-23T00:24:50;10.68;;;4.90;;
62990;SDS011;49084;48.204;16.202;2023-03-23T00:27:16;5.97;;;5.05;;
62990;SDS011;49084;48.204;16.202;2023-03-23T00:29:42;6.30;;;4.80;;
62990;SDS011;49084;48.204;16.202;2023-03-23T00:32:10;9.35;;;5.13;;
62990;SDS011;49084;48.204;16.202;2023-03-23T00:34:41;12.60;;;5.22;;
62990;SDS011;49084;48.204;16.202;2023-03-23T00:37:09;9.13;;;4.50;;
62990;SDS011;49084;48.204;16.202;2023-03-23T00:39:35;8.45;;;4.65;;
62990;SDS011;49084;48.204;16.202;2023-03-23T00:42:02;11.45;;;5.30;;
62990;SDS011;49084;48.204;16.202;2023-03-23T00:44:29;16.45;;;4.82;;
62990;SDS011;49084;48.204;16.202;2023-03-23T00:46:56;10.15;;;5.35;;
62990;SDS011;49084;48.204;16.202;2023-03-23T00:49:24;6.90;;;5.05;;
62990;SDS011;49084;48.204;16.202;2023-03-23T00:51:51;7.90;;;4.88;;
62990;SDS011;49084;48.204;16.202;2023-03-23T00:54:22;6.75;;;4.72;;
62990;SDS011;49084;48.204;16.202;2023-03-23T00:56:47;7.13;;;4.80;;
62990;SDS011;49084;48.204;16.202;2023-03-23T00:59:13;7.22;;;5.20;;
62990;SDS011;49084;48.204;16.202;2023-03-23T01:01:39;10.13;;;5.13;;
62990;SDS011;49084;48.204;16.202;2023-03-23T01:04:05;9.25;;;4.80;;
62990;SDS011;49084;48.204;16.202;2023-03-23T01:06:33;9.45;;;4.75;;
62990;SDS011;49084;48.204;16.202;2023-03-23T01:09:03;10.15;;;5.50;;
62990;SDS011;49084;48.204;16.202;2023-03-23T01:11:30;13.27;;;5.35;;
62990;SDS011;49084;48.204;16.202;2023-03-23T01:13:56;8.50;;;5.60;;
62990;SDS011;49084;48.204;16.202;2023-03-23T01:16:22;7.60;;;5.18;;
62990;SDS011;49084;48.204;16.202;2023-03-23T01:18:48;9.43;;;4.70;;
62990;SDS011;49084;48.204;16.202;2023-03-23T01:21:15;10.05;;;4.88;;
62990;SDS011;49084;48.204;16.202;2023-03-23T01:23:42;7.82;;;4.93;;
62990;SDS011;49084;48.204;16.202;2023-03-23T01:26:16;8.65;;;4.75;;
62990;SDS011;49084;48.204;16.202;2023-03-23T01:28:46;7.90;;;4.72;;
62990;SDS011;49084;48.204;16.202;2023-03-23T01:31:13;6.82;;;5.00;;
62990;SDS011;49084;48.204;16.202;2023-03-23T01:36:09;7.57;;;4.47;;
62990;SDS011;49084;48.204;16.202;2023-03-23T01:38:37;5.68;;;4.38;;
62990;SDS011;49084;48.204;16.202;2023-03-23T01:41:03;10.77;;;5.15;;
62990;SDS011;49084;48.204;16.202;2023-03-23T01:43:29;6.13;;;4.93;;
62990;SDS011;49084;48.204;16.202;2023-03-23T01:45:55;12.95;;;5.07;;
62990;SDS011;49084;48.204;16.202;2023-03-23T01:53:20;10.80;;;5.53;;
62990;SDS011;49084;48.204;16.202;2023-03-23T01:55:47;11.27;;;4.93;;
62990;SDS011;49084;48.204;16.202;2023-03-23T01:58:16;5.67;;;3.47;;
62990;SDS011;49084;48.204;16.202;2023-03-23T02:00:46;7.20;;;4.57;;
62990;SDS011;49084;48.204;16.202;2023-03-23T02:03:12;10.02;;;4.90;;
62990;SDS011;49084;48.204;16.202;2023-03-23T02:08:08;5.75;;;4.18;;
62990;SDS011;49084;48.204;16.202;2023-03-23T02:10:35;7.97;;;4.60;;
62990;SDS011;49084;48.204;16.202;2023-03-23T02:13:03;10.52;;;5.00;;
62990;SDS011;49084;48.204;16.202;2023-03-23T02:15:39;12.40;;;4.65;;
62990;SDS011;49084;48.204;16.202;2023-03-23T02:18:22;6.30;;;4.50;;
62990;SDS011;49084;48.204;16.202;2023-03-23T02:23:58;5.00;;;4.10;;
62990;SDS011;49084;48.204;16.202;2023-03-23T02:29:30;8.80;;;4.65;;
62990;SDS011;49084;48.204;16.202;2023-03-23T02:34:59;6.00;;;4.45;;
62990;SDS011;49084;48.204;16.202;2023-03-23T02:37:36;6.97;;;4.80;;
62990;SDS011;49084;48.204;16.202;2023-03-23T02:40:09;7.13;;;4.60;;
62990;SDS011;49084;48.204;16.202;2023-03-23T02:42:42;10.82;;;4.57;;
62990;SDS011;49084;48.204;16.202;2023-03-23T02:45:12;7.28;;;4.75;;
62990;SDS011;49084;48.204;16.202;2023-03-23T02:47:40;4.00;;;3.60;;
62990;SDS011;49084;48.204;16.202;2023-03-23T02:50:08;7.30;;;4.88;;
62990;SDS011;49084;48.204;16.202;2023-03-23T02:52:39;8.02;;;4.82;;
62990;SDS011;49084;48.204;16.202;2023-03-23T02:55:06;6.70;;;4.13;;
62990;SDS011;49084;48.204;16.202;2023-03-23T02:57:33;6.07;;;4.13;;
62990;SDS011;49084;48.204;16.202;2023-03-23T03:00:00;5.20;;;4.47;;
62990;SDS011;49084;48.204;16.202;2023-03-23T03:02:33;7.60;;;4.60;;
62990;SDS011;49084;48.204;16.202;2023-03-23T03:05:09;7.85;;;4.97;;
62990;SDS011;49084;48.204;16.202;2023-03-23T03:10:51;10.13;;;5.15;;
62990;SDS011;49084;48.204;16.202;2023-03-23T03:21:40;5.65;;;4.32;;
62990;SDS011;49084;48.204;16.202;2023-03-23T03:24:09;7.43;;;4.47;;
62990;SDS011;49084;48.204;16.202;2023-03-23T03:26:37;7.10;;;5.47;;
62990;SDS011;49084;48.204;16.202;2023-03-23T03:29:10;8.40;;;4.45;;
62990;SDS011;49084;48.204;16.202;2023-03-23T03:31:38;7.25;;;4.68;;
62990;SDS011;49084;48.204;16.202;2023-03-23T03:34:10;7.80;;;4.75;;
62990;SDS011;49084;48.204;16.202;2023-03-23T03:36:36;7.90;;;4.45;;
62990;SDS011;49084;48.204;16.202;2023-03-23T03:39:04;8.70;;;4.78;;
62990;SDS011;49084;48.204;16.202;2023-03-23T03:41:32;12.25;;;4.20;;
62990;SDS011;49084;48.204;16.202;2023-03-23T03:43:59;6.22;;;4.22;;
62990;SDS011;49084;48.204;16.202;2023-03-23T03:46:25;8.25;;;4.32;;
62990;SDS011;49084;48.204;16.202;2023-03-23T03:48:54;9.00;;;3.95;;
62990;SDS011;49084;48.204;16.202;2023-03-23T03:51:21;6.60;;;3.97;;
62990;SDS011;49084;48.204;16.202;2023-03-23T03:53:47;5.25;;;3.72;;
62990;SDS011;49084;48.204;16.202;2023-03-23T03:56:13;7.07;;;4.18;;
62990;SDS011;49084;48.204;16.202;2023-03-23T03:58:39;8.45;;;3.92;;
62990;SDS011;49084;48.204;16.202;2023-03-23T04:01:07;5.63;;;4.30;;
62990;SDS011;49084;48.204;16.202;2023-03-23T04:03:35;6.68;;;4.30;;
62990;SDS011;49084;48.204;16.202;2023-03-23T04:06:02;7.15;;;4.00;;
62990;SDS011;49084;48.204;16.202;2023-03-23T04:08:28;4.82;;;3.92;;
62990;SDS011;49084;48.204;16.202;2023-03-23T04:10:54;4.80;;;4.05;;
62990;SDS011;49084;48.204;16.202;2023-03-23T04:13:20;5.30;;;3.88;;
62990;SDS011;49084;48.204;16.202;2023-03-23T04:15:47;5.20;;;4.18;;
62990;SDS011;49084;48.204;16.202;2023-03-23T04:18:13;7.25;;;3.95;;
62990;SDS011;49084;48.204;16.202;2023-03-23T04:20:42;6.18;;;4.10;;
62990;SDS011;49084;48.204;16.202;2023-03-23T04:23:13;6.90;;;4.38;;
62990;SDS011;49084;48.204;16.202;2023-03-23T04:25:39;9.77;;;3.95;;
62990;SDS011;49084;48.204;16.202;2023-03-23T04:28:07;6.75;;;4.65;;
62990;SDS011;49084;48.204;16.202;2023-03-23T04:30:35;8.23;;;4.43;;
62990;SDS011;49084;48.204;16.202;2023-03-23T04:33:02;9.88;;;4.20;;
62990;SDS011;49084;48.204;16.202;2023-03-23T04:35:28;8.00;;;4.03;;
62990;SDS011;49084;48.204;16.202;2023-03-23T04:37:56;5.70;;;4.20;;
62990;SDS011;49084;48.204;16.202;2023-03-23T04:40:22;7.60;;;4.13;;
62990;SDS011;49084;48.204;16.202;2023-03-23T04:42:48;8.65;;;4.20;;
62990;SDS011;49084;48.204;16.202;2023-03-23T04:45:18;6.03;;;3.33;;
62990;SDS011;49084;48.204;16.202;2023-03-23T04:47:47;8.57;;;4.30;;
62990;SDS011;49084;48.204;16.202;2023-03-23T04:50:23;5.70;;;4.00;;
62990;SDS011;49084;48.204;16.202;2023-03-23T04:52:51;7.97;;;4.80;;
62990;SDS011;49084;48.204;16.202;2023-03-23T04:55:19;6.47;;;4.38;;
62990;SDS011;49084;48.204;16.202;2023-03-23T04:57:46;8.32;;;4.30;;
62990;SDS011;49084;48.204;16.202;2023-03-23T05:00:12;7.05;;;4.28;;
62990;SDS011;49084;48.204;16.202;2023-03-23T05:02:45;9.55;;;4.60;;
62990;SDS011;49084;48.204;16.202;2023-03-23T05:05:18;9.40;;;4.53;;
62990;SDS011;49084;48.204;16.202;2023-03-23T05:07:45;6.13;;;4.45;;
62990;SDS011;49084;48.204;16.202;2023-03-23T05:10:11;8.65;;;4.32;;
62990;SDS011;49084;48.204;16.202;2023-03-23T05:12:38;5.75;;;4.32;;
62990;SDS011;49084;48.204;16.202;2023-03-23T05:15:04;7.85;;;4.20;;
62990;SDS011;49084;48.204;16.202;2023-03-23T05:17:32;8.02;;;4.55;;
62990;SDS011;49084;48.204;16.202;2023-03-23T05:19:59;5.70;;;3.85;;
62990;SDS011;49084;48.204;16.202;2023-03-23T05:22:28;6.72;;;4.00;;
62990;SDS011;49084;48.204;16.202;2023-03-23T05:24:57;6.10;;;3.97;;
62990;SDS011;49084;48.204;16.202;2023-03-23T05:27:23;6.68;;;4.47;;
62990;SDS011;49084;48.204;16.202;2023-03-23T05:29:53;4.88;;;4.20;;
62990;SDS011;49084;48.204;16.202;2023-03-23T05:32:18;8.13;;;4.38;;
62990;SDS011;49084;48.204;16.202;2023-03-23T05:34:44;8.20;;;4.97;;
62990;SDS011;49084;48.204;16.202;2023-03-23T05:37:11;8.30;;;4.55;;
62990;SDS011;49084;48.204;16.202;2023-03-23T05:39:38;6.78;;;4.13;;
62990;SDS011;49084;48.204;16.202;2023-03-23T05:42:05;11.45;;;4.97;;
62990;SDS011;49084;48.204;16.202;2023-03-23T05:44:31;9.10;;;4.80;;
62990;SDS011;49084;48.204;16.202;2023-03-23T05:46:57;13.52;;;5.65;;
62990;SDS011;49084;48.204;16.202;2023-03-23T05:49:22;8.82;;;4.75;;
62990;SDS011;49084;48.204;16.202;2023-03-23T05:51:49;11.38;;;5.13;;
62990;SDS011;49084;48.204;16.202;2023-03-23T05:54:15;7.53;;;5.32;;
62990;SDS011;49084;48.204;16.202;2023-03-23T05:56:41;8.40;;;5.05;;
62990;SDS011;49084;48.204;16.202;2023-03-23T05:59:07;7.65;;;5.13;;
62990;SDS011;49084;48.204;16.202;2023-03-23T06:01:35;5.05;;;4.43;;
62990;SDS011;49084;48.204;16.202;2023-03-23T06:04:01;14.07;;;4.97;;
62990;SDS011;49084;48.204;16.202;2023-03-23T06:06:28;6.15;;;4.32;;
62990;SDS011;49084;48.204;16.202;2023-03-23T06:08:57;8.30;;;4.47;;
62990;SDS011;49084;48.204;16.202;2023-03-23T06:11:23;6.97;;;4.50;;
62990;SDS011;49084;48.204;16.202;2023-03-23T06:13:51;9.07;;;4.10;;
62990;SDS011;49084;48.204;16.202;2023-03-23T06:16:17;7.90;;;4.35;;
62990;SDS011;49084;48.204;16.202;2023-03-23T06:18:44;8.30;;;4.63;;
62990;SDS011;49084;48.204;16.202;2023-03-23T06:21:10;8.88;;;4.32;;
62990;SDS011;49084;48.204;16.202;2023-03-23T06:23:37;12.18;;;4.40;;
62990;SDS011;49084;48.204;16.202;2023-03-23T06:26:04;7.95;;;4.30;;
62990;SDS011;49084;48.204;16.202;2023-03-23T06:28:32;10.75;;;3.95;;
62990;SDS011;49084;48.204;16.202;2023-03-23T06:30:59;7.93;;;4.32;;
62990;SDS011;49084;48.204;16.202;2023-03-23T06:33:26;7.05;;;3.70;;
62990;SDS011;49084;48.204;16.202;2023-03-23T06:35:52;7.82;;;4.22;;
62990;SDS011;49084;48.204;16.202;2023-03-23T06:38:17;8.43;;;4.28;;
62990;SDS011;49084;48.204;16.202;2023-03-23T06:40:43;6.50;;;3.83;;
62990;SDS011;49084;48.204;16.202;2023-03-23T06:43:11;7.93;;;4.17;;
62990;SDS011;49084;48.204;16.202;2023-03-23T06:45:37;6.88;;;3.63;;
62990;SDS011;49084;48.204;16.202;2023-03-23T06:48:03;7.82;;;3.55;;
62990;SDS011;49084;48.204;16.202;2023-03-23T06:50:29;8.52;;;5.22;;
62990;SDS011;49084;48.204;16.202;2023-03-23T06:52:55;7.25;;;3.28;;
62990;SDS011;49084;48.204;16.202;2023-03-23T06:55:21;10.38;;;4.07;;
62990;SDS011;49084;48.204;16.202;2023-03-23T06:57:47;5.55;;;3.35;;
62990;SDS011;49084;48.204;16.202;2023-03-23T07:00:13;6.10;;;3.33;;
62990;SDS011;49084;48.204;16.202;2023-03-23T07:02:39;8.95;;;3.35;;
62990;SDS011;49084;48.204;16.202;2023-03-23T07:05:06;5.25;;;3.42;;
62990;SDS011;49084;48.204;16.202;2023-03-23T07:07:34;5.73;;;3.73;;
62990;SDS011;49084;48.204;16.202;2023-03-23T07:10:01;7.22;;;3.72;;
62990;SDS011;49084;48.204;16.202;2023-03-23T07:12:27;9.38;;;3.95;;
62990;SDS011;49084;48.204;16.202;2023-03-23T07:14:54;6.82;;;3.83;;
62990;SDS011;49084;48.204;16.202;2023-03-23T07:17:20;7.07;;;4.07;;
62990;SDS011;49084;48.204;16.202;2023-03-23T07:19:46;9.05;;;3.80;;
62990;SDS011;49084;48.204;16.202;2023-03-23T07:22:12;5.55;;;3.85;;
62990;SDS011;49084;48.204;16.202;2023-03-23T07:24:37;4.28;;;2.90;;
62990;SDS011;49084;48.204;16.202;2023-03-23T07:27:03;5.18;;;3.13;;
62990;SDS011;49084;48.204;16.202;2023-03-23T07:29:29;4.68;;;2.80;;
62990;SDS011;49084;48.204;16.202;2023-03-23T07:31:55;7.85;;;2.53;;
62990;SDS011;49084;48.204;16.202;2023-03-23T07:34:21;6.82;;;2.65;;
62990;SDS011;49084;48.204;16.202;2023-03-23T07:36:47;4.38;;;2.38;;
62990;SDS011;49084;48.204;16.202;2023-03-23T07:39:13;4.80;;;2.80;;
62990;SDS011;49084;48.204;16.202;2023-03-23T07:41:39;7.18;;;3.75;;
62990;SDS011;49084;48.204;16.202;2023-03-23T07:44:05;9.43;;;3.40;;
62990;SDS011;49084;48.204;16.202;2023-03-23T07:46:31;6.60;;;2.95;;
62990;SDS011;49084;48.204;16.202;2023-03-23T07:48:57;4.32;;;2.63;;
62990;SDS011;49084;48.204;16.202;2023-03-23T07:51:23;9.35;;;3.17;;
62990;SDS011;49084;48.204;16.202;2023-03-23T07:53:49;5.45;;;3.28;;
62990;SDS011;49084;48.204;16.202;2023-03-23T07:56:16;4.68;;;3.53;;
62990;SDS011;49084;48.204;16.202;2023-03-23T07:58:44;6.32;;;3.83;;
62990;SDS011;49084;48.204;16.202;2023-03-23T08:01:11;7.30;;;4.53;;
62990;SDS011;49084;48.204;16.202;2023-03-23T08:03:37;12.35;;;6.00;;
62990;SDS011;49084;48.204;16.202;2023-03-23T08:06:03;14.18;;;7.60;;
62990;SDS011;49084;48.204;16.202;2023-03-23T08:08:30;7.50;;;5.57;;
62990;SDS011;49084;48.204;16.202;2023-03-23T08:10:56;11.60;;;6.72;;
62990;SDS011;49084;48.204;16.202;2023-03-23T08:13:22;8.82;;;5.60;;
62990;SDS011;49084;48.204;16.202;2023-03-23T08:15:49;10.77;;;5.97;;
62990;SDS011;49084;48.204;16.202;2023-03-23T08:18:16;7.95;;;5.35;;
62990;SDS011;49084;48.204;16.202;2023-03-23T08:20:42;7.65;;;5.38;;
62990;SDS011;49084;48.204;16.202;2023-03-23T08:23:09;6.13;;;4.93;;
62990;SDS011;49084;48.204;16.202;2023-03-23T08:25:35;6.82;;;4.95;;
62990;SDS011;49084;48.204;16.202;2023-03-23T08:28:02;5.53;;;4.93;;
62990;SDS011;49084;48.204;16.202;2023-03-23T08:30:28;13.90;;;5.50;;
62990;SDS011;49084;48.204;16.202;2023-03-23T08:32:57;7.50;;;5.28;;
62990;SDS011;49084;48.204;16.202;2023-03-23T08:35:25;13.10;;;5.45;;
62990;SDS011;49084;48.204;16.202;2023-03-23T08:37:51;10.20;;;5.63;;
62990;SDS011;49084;48.204;16.202;2023-03-23T08:40:18;7.78;;;4.97;;
62990;SDS011;49084;48.204;16.202;2023-03-23T08:42:47;8.23;;;5.03;;
62990;SDS011;49084;48.204;16.202;2023-03-23T08:45:15;6.30;;;5.07;;
62990;SDS011;49084;48.204;16.202;2023-03-23T08:47:43;6.97;;;4.78;;
62990;SDS011;49084;48.204;16.202;2023-03-23T08:50:11;7.30;;;4.78;;
62990;SDS011;49084;48.204;16.202;2023-03-23T08:52:38;7.57;;;4.82;;
62990;SDS011;49084;48.204;16.202;2023-03-23T08:55:05;6.40;;;4.80;;
62990;SDS011;49084;48.204;16.202;2023-03-23T08:57:33;11.20;;;5.43;;
62990;SDS011;49084;48.204;16.202;2023-03-23T09:00:01;8.23;;;4.78;;
62990;SDS011;49084;48.204;16.202;2023-03-23T09:02:43;6.85;;;4.70;;
62990;SDS011;49084;48.204;16.202;2023-03-23T09:05:10;9.27;;;5.07;;
62990;SDS011;49084;48.204;16.202;2023-03-23T09:07:37;6.72;;;4.78;;
62990;SDS011;49084;48.204;16.202;2023-03-23T09:10:04;10.60;;;5.53;;
62990;SDS011;49084;48.204;16.202;2023-03-23T09:12:30;10.18;;;5.00;;
62990;SDS011;49084;48.204;16.202;2023-03-23T09:14:56;7.60;;;5.18;;
62990;SDS011;49084;48.204;16.202;2023-03-23T09:17:22;12.25;;;4.90;;
62990;SDS011;49084;48.204;16.202;2023-03-23T09:19:47;8.60;;;4.63;;
62990;SDS011;49084;48.204;16.202;2023-03-23T09:22:13;7.25;;;4.95;;
62990;SDS011;49084;48.204;16.202;2023-03-23T09:24:40;6.88;;;5.13;;
62990;SDS011;49084;48.204;16.202;2023-03-23T09:27:06;7.65;;;4.93;;
62990;SDS011;49084;48.204;16.202;2023-03-23T09:29:32;8.98;;;5.60;;
62990;SDS011;49084;48.204;16.202;2023-03-23T09:31:57;13.25;;;6.05;;
62990;SDS011;49084;48.204;16.202;2023-03-23T09:34:25;12.98;;;5.80;;
62990;SDS011;49084;48.204;16.202;2023-03-23T09:36:50;10.93;;;5.43;;
62990;SDS011;49084;48.204;16.202;2023-03-23T09:39:16;9.50;;;5.28;;
62990;SDS011;49084;48.204;16.202;2023-03-23T09:41:54;10.20;;;4.80;;
62990;SDS011;49084;48.204;16.202;2023-03-23T09:50:39;13.55;;;4.43;;
62990;SDS011;49084;48.204;16.202;2023-03-23T09:53:16;9.70;;;4.60;;
62990;SDS011;49084;48.204;16.202;2023-03-23T09:55:48;7.47;;;4.28;;
62990;SDS011;49084;48.204;16.202;2023-03-23T10:01:05;10.75;;;4.55;;
62990;SDS011;49084;48.204;16.202;2023-03-23T10:03:41;12.55;;;5.53;;
62990;SDS011;49084;48.204;16.202;2023-03-23T10:06:12;10.85;;;4.63;;
62990;SDS011;49084;48.204;16.202;2023-03-23T10:08:52;9.48;;;5.13;;
62990;SDS011;49084;48.204;16.202;2023-03-23T10:17:14;12.13;;;5.90;;
62990;SDS011;49084;48.204;16.202;2023-03-23T10:20:24;11.60;;;6.93;;
62990;SDS011;49084;48.204;16.202;2023-03-23T10:22:33;15.35;;;7.70;;
62990;SDS011;49084;48.204;16.202;2023-03-23T10:30:30;15.60;;;6.75;;
62990;SDS011;49084;48.204;16.202;2023-03-23T10:35:42;16.70;;;7.50;;
62990;SDS011;49084;48.204;16.202;2023-03-23T10:38:15;23.10;;;8.63;;
62990;SDS011;49084;48.204;16.202;2023-03-23T10:40:54;21.00;;;7.95;;
62990;SDS011;49084;48.204;16.202;2023-03-23T10:43:23;14.95;;;7.75;;
62990;SDS011;49084;48.204;16.202;2023-03-23T10:45:52;15.80;;;7.63;;
62990;SDS011;49084;48.204;16.202;2023-03-23T10:48:29;21.15;;;8.13;;
62990;SDS011;49084;48.204;16.202;2023-03-23T10:50:59;11.77;;;7.32;;
62990;SDS011;49084;48.204;16.202;2023-03-23T10:53:38;16.17;;;6.72;;
62990;SDS011;49084;48.204;16.202;2023-03-23T10:56:28;11.98;;;6.70;;
62990;SDS011;49084;48.204;16.202;2023-03-23T10:59:10;14.70;;;6.90;;
62990;SDS011;49084;48.204;16.202;2023-03-23T11:01:52;18.60;;;6.47;;
62990;SDS011;49084;48.204;16.202;2023-03-23T11:04:20;16.73;;;6.43;;
62990;SDS011;49084;48.204;16.202;2023-03-23T11:06:49;11.07;;;5.90;;
62990;SDS011;49084;48.204;16.202;2023-03-23T11:09:21;8.73;;;6.43;;
62990;SDS011;49084;48.204;16.202;2023-03-23T11:11:58;10.25;;;5.22;;
62990;SDS011;49084;48.204;16.202;2023-03-23T11:16:53;7.30;;;4.88;;
62990;SDS011;49084;48.204;16.202;2023-03-23T11:19:36;13.15;;;5.10;;
62990;SDS011;49084;48.204;16.202;2023-03-23T11:22:13;7.93;;;4.20;;
62990;SDS011;49084;48.204;16.202;2023-03-23T11:25:02;9.93;;;4.63;;
62990;SDS011;49084;48.204;16.202;2023-03-23T11:27:30;7.55;;;3.80;;
62990;SDS011;49084;48.204;16.202;2023-03-23T11:30:07;10.10;;;3.35;;
62990;SDS011;49084;48.204;16.202;2023-03-23T11:32:45;12.82;;;3.90;;
62990;SDS011;49084;48.204;16.202;2023-03-23T11:35:15;10.02;;;4.10;;
62990;SDS011;49084;48.204;16.202;2023-03-23T11:37:46;8.52;;;3.17;;
62990;SDS011;49084;48.204;16.202;2023-03-23T11:40:21;7.75;;;3.10;;
62990;SDS011;49084;48.204;16.202;2023-03-23T11:43:08;4.97;;;2.80;;
62990;SDS011;49084;48.204;16.202;2023-03-23T11:48:57;5.43;;;3.80;;
62990;SDS011;49084;48.204;16.202;2023-03-23T11:51:31;12.50;;;3.20;;
62990;SDS011;49084;48.204;16.202;2023-03-23T11:56:35;10.25;;;3.17;;
62990;SDS011;49084;48.204;16.202;2023-03-23T11:59:05;7.82;;;3.47;;
62990;SDS011;49084;48.204;16.202;2023-03-23T12:15:42;9.63;;;3.55;;
62990;SDS011;49084;48.204;16.202;2023-03-23T12:23:36;13.43;;;3.35;;
62990;SDS011;49084;48.204;16.202;2023-03-23T12:26:24;7.50;;;2.65;;
62990;SDS011;49084;48.204;16.202;2023-03-23T12:31:47;10.55;;;4.03;;
62990;SDS011;49084;48.204;16.202;2023-03-23T12:37:41;5.90;;;3.78;;
62990;SDS011;49084;48.204;16.202;2023-03-23T12:42:58;25.02;;;5.00;;
62990;SDS011;49084;48.204;16.202;2023-03-23T12:48:12;13.45;;;3.75;;
62990;SDS011;49084;48.204;16.202;2023-03-23T12:50:46;9.50;;;4.60;;
62990;SDS011;49084;48.204;16.202;2023-03-23T12:53:29;7.20;;;3.78;;
62990;SDS011;49084;48.204;16.202;2023-03-23T12:56:06;9.77;;;4.10;;
62990;SDS011;49084;48.204;16.202;2023-03-23T12:58:49;8.20;;;3.92;;
62990;SDS011;49084;48.204;16.202;2023-03-23T13:01:23;7.60;;;3.80;;
62990;SDS011;49084;48.204;16.202;2023-03-23T13:04:11;8.85;;;3.92;;
62990;SDS011;49084;48.204;16.202;2023-03-23T13:06:42;8.80;;;4.78;;
62990;SDS011;49084;48.204;16.202;2023-03-23T13:09:22;6.30;;;4.40;;
62990;SDS011;49084;48.204;16.202;2023-03-23T13:11:50;12.88;;;5.18;;
62990;SDS011;49084;48.204;16.202;2023-03-23T13:14:28;7.77;;;5.23;;
62990;SDS011;49084;48.204;16.202;2023-03-23T13:17:16;10.77;;;4.90;;
62990;SDS011;49084;48.204;16.202;2023-03-23T13:25:53;6.05;;;4.85;;
62990;SDS011;49084;48.204;16.202;2023-03-23T13:28:29;8.82;;;4.75;;
62990;SDS011;49084;48.204;16.202;2023-03-23T13:33:25;6.40;;;4.20;;
62990;SDS011;49084;48.204;16.202;2023-03-23T13:35:54;11.18;;;4.70;;
62990;SDS011;49084;48.204;16.202;2023-03-23T13:38:24;8.88;;;4.82;;
62990;SDS011;49084;48.204;16.202;2023-03-23T13:40:52;10.07;;;4.35;;
62990;SDS011;49084;48.204;16.202;2023-03-23T13:43:27;10.77;;;4.63;;
62990;SDS011;49084;48.204;16.202;2023-03-23T13:46:11;10.17;;;4.63;;
62990;SDS011;49084;48.204;16.202;2023-03-23T13:48:47;8.90;;;3.97;;
62990;SDS011;49084;48.204;16.202;2023-03-23T13:54:15;9.30;;;3.90;;
62990;SDS011;49084;48.204;16.202;2023-03-23T13:57:00;5.10;;;3.50;;
62990;SDS011;49084;48.204;16.202;2023-03-23T13:59:47;8.32;;;3.30;;
62990;SDS011;49084;48.204;16.202;2023-03-23T14:02:28;7.47;;;3.50;;
62990;SDS011;49084;48.204;16.202;2023-03-23T14:05:09;5.45;;;3.92;;
62990;SDS011;49084;48.204;16.202;2023-03-23T14:10:30;7.43;;;3.63;;
62990;SDS011;49084;48.204;16.202;2023-03-23T14:13:11;9.52;;;3.58;;
62990;SDS011;49084;48.204;16.202;2023-03-23T14:15:55;5.95;;;3.53;;
62990;SDS011;49084;48.204;16.202;2023-03-23T14:18:25;7.18;;;3.63;;
62990;SDS011;49084;48.204;16.202;2023-03-23T14:20:55;5.93;;;3.17;;
62990;SDS011;49084;48.204;16.202;2023-03-23T14:23:22;9.18;;;3.40;;
62990;SDS011;49084;48.204;16.202;2023-03-23T14:25:54;8.27;;;3.30;;
62990;SDS011;49084;48.204;16.202;2023-03-23T14:28:22;4.15;;;2.75;;
62990;SDS011;49084;48.204;16.202;2023-03-23T14:30:52;5.13;;;3.35;;
62990;SDS011;49084;48.204;16.202;2023-03-23T14:33:19;8.52;;;3.28;;
62990;SDS011;49084;48.204;16.202;2023-03-23T14:35:45;6.55;;;3.20;;
62990;SDS011;49084;48.204;16.202;2023-03-23T14:38:21;12.27;;;3.07;;
62990;SDS011;49084;48.204;16.202;2023-03-23T14:40:53;5.75;;;3.03;;
62990;SDS011;49084;48.204;16.202;2023-03-23T14:43:24;5.50;;;2.88;;
62990;SDS011;49084;48.204;16.202;2023-03-23T14:45:54;6.78;;;2.65;;
62990;SDS011;49084;48.204;16.202;2023-03-23T14:48:22;6.95;;;2.85;;
62990;SDS011;49084;48.204;16.202;2023-03-23T14:51:00;6.10;;;3.33;;
62990;SDS011;49084;48.204;16.202;2023-03-23T14:53:36;7.78;;;3.10;;
62990;SDS011;49084;48.204;16.202;2023-03-23T14:56:08;7.65;;;2.90;;
62990;SDS011;49084;48.204;16.202;2023-03-23T14:58:47;5.15;;;2.28;;
62990;SDS011;49084;48.204;16.202;2023-03-23T15:01:24;8.07;;;2.78;;
62990;SDS011;49084;48.204;16.202;2023-03-23T15:06:19;4.30;;;2.40;;
62990;SDS011;49084;48.204;16.202;2023-03-23T15:08:47;4.97;;;2.47;;
62990;SDS011;49084;48.204;16.202;2023-03-23T15:13:43;9.40;;;2.80;;
62990;SDS011;49084;48.204;16.202;2023-03-23T15:16:13;6.55;;;2.53;;
62990;SDS011;49084;48.204;16.202;2023-03-23T15:18:51;4.97;;;2.20;;
62990;SDS011;49084;48.204;16.202;2023-03-23T15:21:23;3.97;;;2.10;;
62990;SDS011;49084;48.204;16.202;2023-03-23T15:23:52;3.13;;;2.03;;
62990;SDS011;49084;48.204;16.202;2023-03-23T15:26:22;3.22;;;2.22;;
62990;SDS011;49084;48.204;16.202;2023-03-23T15:31:33;4.80;;;1.73;;
62990;SDS011;49084;48.204;16.202;2023-03-23T15:34:30;9.63;;;2.28;;
62990;SDS011;49084;48.204;16.202;2023-03-23T15:37:02;4.90;;;1.75;;
62990;SDS011;49084;48.204;16.202;2023-03-23T15:39:30;2.55;;;1.92;;
62990;SDS011;49084;48.204;16.202;2023-03-23T15:41:57;2.33;;;1.92;;
62990;SDS011;49084;48.204;16.202;2023-03-23T15:44:29;2.05;;;1.83;;
62990;SDS011;49084;48.204;16.202;2023-03-23T15:47:17;6.30;;;2.45;;
62990;SDS011;49084;48.204;16.202;2023-03-23T15:49:46;3.50;;;1.98;;
62990;SDS011;49084;48.204;16.202;2023-03-23T15:52:12;7.63;;;2.00;;
62990;SDS011;49084;48.204;16.202;2023-03-23T15:54:45;4.78;;;2.50;;
62990;SDS011;49084;48.204;16.202;2023-03-23T15:57:12;6.55;;;2.40;;
62990;SDS011;49084;48.204;16.202;2023-03-23T15:59:38;4.45;;;2.28;;
62990;SDS011;49084;48.204;16.202;2023-03-23T16:02:03;8.63;;;2.50;;
62990;SDS011;49084;48.204;16.202;2023-03-23T16:04:29;5.47;;;2.78;;
62990;SDS011;49084;48.204;16.202;2023-03-23T16:06:56;5.90;;;2.22;;
62990;SDS011;49084;48.204;16.202;2023-03-23T16:09:23;5.03;;;2.00;;
62990;SDS011;49084;48.204;16.202;2023-03-23T16:11:49;4.38;;;2.40;;
62990;SDS011;49084;48.204;16.202;2023-03-23T16:14:15;3.40;;;2.20;;
62990;SDS011;49084;48.204;16.202;2023-03-23T16:16:41;6.20;;;2.40;;
62990;SDS011;49084;48.204;16.202;2023-03-23T16:19:11;7.90;;;2.90;;
62990;SDS011;49084;48.204;16.202;2023-03-23T16:21:38;6.75;;;2.42;;
62990;SDS011;49084;48.204;16.202;2023-03-23T16:24:04;8.27;;;2.95;;
62990;SDS011;49084;48.204;16.202;2023-03-23T16:26:30;15.95;;;2.83;;
62990;SDS011;49084;48.204;16.202;2023-03-23T16:28:56;4.80;;;2.42;;
62990;SDS011;49084;48.204;16.202;2023-03-23T16:31:22;8.15;;;2.90;;
62990;SDS011;49084;48.204;16.202;2023-03-23T16:33:47;20.48;;;2.58;;
62990;SDS011;49084;48.204;16.202;2023-03-23T16:36:13;21.45;;;2.90;;
62990;SDS011;49084;48.204;16.202;2023-03-23T16:38:40;10.40;;;2.83;;
62990;SDS011;49084;48.204;16.202;2023-03-23T16:41:06;10.50;;;2.97;;